Time;durP1;ratioP1;P1;durP2;ratioP2;P2;SDS_P1;SDS_P2;PMS_P1;PMS_P2;Temp;Humidity;BMP_temperature;BMP_pressure;BME280_temperature;BME280_humidity;BME280_pressure;Samples;Min_cycle;Max_cycle;Signal;HPM_P1;HPM_P2
2022/10/21 00:02:14;;;;;;;5.77;5.10;;;;;;;;;;4968501;28;21012;-69
2022/10/21 00:04:40;;;;;;;4.47;4.20;;;;;;;;;;4969667;28;20468;-68
2022/10/21 00:07:06;;;;;;;3.60;3.50;;;;;;;;;;4968459;28;20489;-70
2022/10/21 00:09:32;;;;;;;3.67;3.37;;;;;;;;;;4969671;28;20438;-71
2022/10/21 00:11:58;;;;;;;3.67;3.57;;;;;;;;;;4969798;28;20998;-69
2022/10/21 00:14:24;;;;;;;6.97;4.80;;;;;;;;;;4969449;28;20442;-71
2022/10/21 00:16:49;;;;;;;5.17;4.80;;;;;;;;;;4969408;28;20512;-71
2022/10/21 00:19:15;;;;;;;5.10;4.80;;;;;;;;;;4969771;28;20456;-69
2022/10/21 00:21:41;;;;;;;6.60;5.40;;;;;;;;;;4969286;28;20442;-70
2022/10/21 00:24:08;;;;;;;4.10;4.00;;;;;;;;;;4969931;28;20445;-71
2022/10/21 00:26:34;;;;;;;3.87;3.77;;;;;;;;;;4969223;28;20461;-68
2022/10/21 00:29:00;;;;;;;3.83;3.73;;;;;;;;;;4971797;28;21125;-68
2022/10/21 00:31:26;;;;;;;4.77;4.37;;;;;;;;;;4973464;28;20800;-69
2022/10/21 00:33:52;;;;;;;4.50;4.17;;;;;;;;;;4972752;28;20793;-69
2022/10/21 00:36:18;;;;;;;4.60;3.53;;;;;;;;;;4973770;28;20942;-68
2022/10/21 00:38:47;;;;;;;3.93;3.57;;;;;;;;;;4972346;28;20446;-68
2022/10/21 00:41:14;;;;;;;3.57;3.30;;;;;;;;;;4972619;28;20520;-69
2022/10/21 00:44:00;;;;;;;4.03;3.73;;;;;;;;;;4973187;28;20489;-68
2022/10/21 00:46:29;;;;;;;3.90;3.70;;;;;;;;;;4971371;28;20926;-70
2022/10/21 00:48:57;;;;;;;3.60;3.30;;;;;;;;;;4973298;28;20533;-68
2022/10/21 00:51:23;;;;;;;3.27;3.17;;;;;;;;;;4973522;28;20774;-68
2022/10/21 00:53:50;;;;;;;5.30;5.00;;;;;;;;;;4973399;28;20442;-68
2022/10/21 00:56:19;;;;;;;3.60;3.40;;;;;;;;;;4973133;28;20484;-70
2022/10/21 00:58:46;;;;;;;5.13;3.47;;;;;;;;;;4972091;28;20439;-68
2022/10/21 01:01:12;;;;;;;3.60;3.50;;;;;;;;;;4973302;28;20949;-69
2022/10/21 01:03:38;;;;;;;6.00;4.47;;;;;;;;;;4973320;28;20485;-71
2022/10/21 01:06:07;;;;;;;9.60;4.17;;;;;;;;;;4972305;28;20441;-68
2022/10/21 01:08:34;;;;;;;5.10;4.20;;;;;;;;;;4972314;28;20449;-68
2022/10/21 01:11:00;;;;;;;4.23;4.03;;;;;;;;;;4971935;28;20558;-67
2022/10/21 01:13:33;;;;;;;3.97;3.57;;;;;;;;;;4972983;28;20488;-69
2022/10/21 01:16:10;;;;;;;4.87;4.40;;;;;;;;;;4973040;28;20517;-69
2022/10/21 01:18:55;;;;;;;4.20;3.80;;;;;;;;;;4972379;28;20448;-68
2022/10/21 01:21:32;;;;;;;4.50;4.07;;;;;;;;;;4971791;28;20442;-69
2022/10/21 01:24:19;;;;;;;4.23;4.03;;;;;;;;;;4971063;28;20533;-68
2022/10/21 01:26:48;;;;;;;4.17;4.07;;;;;;;;;;4971050;28;20448;-68
2022/10/21 01:29:34;;;;;;;4.17;4.07;;;;;;;;;;4971833;28;20452;-68
2022/10/21 01:32:06;;;;;;;3.50;3.40;;;;;;;;;;4969834;28;20431;-69
2022/10/21 01:34:35;;;;;;;3.93;3.60;;;;;;;;;;4970845;28;20862;-68
2022/10/21 01:37:08;;;;;;;4.07;3.87;;;;;;;;;;4971488;28;20426;-69
2022/10/21 01:39:37;;;;;;;4.17;3.87;;;;;;;;;;4970909;28;20442;-68
2022/10/21 01:42:14;;;;;;;4.60;4.20;;;;;;;;;;4971203;28;20475;-68
2022/10/21 01:44:42;;;;;;;4.40;4.10;;;;;;;;;;4971923;28;20452;-68
2022/10/21 01:47:17;;;;;;;4.60;4.30;;;;;;;;;;4972453;28;20573;-68
2022/10/21 01:49:47;;;;;;;5.00;4.80;;;;;;;;;;4971655;28;20437;-69
2022/10/21 01:52:13;;;;;;;3.43;3.20;;;;;;;;;;4972636;28;20446;-68
2022/10/21 01:54:42;;;;;;;5.97;5.37;;;;;;;;;;4971823;28;20444;-70
2022/10/21 01:57:10;;;;;;;4.40;4.10;;;;;;;;;;4971987;28;20426;-69
2022/10/21 01:59:38;;;;;;;11.83;5.03;;;;;;;;;;4971860;28;20438;-69
2022/10/21 02:02:06;;;;;;;5.17;4.90;;;;;;;;;;4972428;28;20480;-68
2022/10/21 02:04:33;;;;;;;5.80;5.27;;;;;;;;;;4971886;28;20445;-69
2022/10/21 02:06:58;;;;;;;4.10;3.90;;;;;;;;;;4970861;28;20461;-69
2022/10/21 02:09:24;;;;;;;4.50;4.17;;;;;;;;;;4971934;28;20438;-68
2022/10/21 02:11:52;;;;;;;5.13;4.50;;;;;;;;;;4972109;28;20442;-68
2022/10/21 02:14:24;;;;;;;4.37;4.17;;;;;;;;;;4972398;28;20817;-69
2022/10/21 02:16:50;;;;;;;6.63;4.50;;;;;;;;;;4970565;28;20438;-70
2022/10/21 02:19:17;;;;;;;7.53;3.90;;;;;;;;;;4972104;28;20488;-68
2022/10/21 02:21:44;;;;;;;11.10;4.30;;;;;;;;;;4972389;28;20434;-68
2022/10/21 02:24:29;;;;;;;6.43;4.57;;;;;;;;;;4971104;28;20501;-68
2022/10/21 02:26:55;;;;;;;4.97;4.57;;;;;;;;;;4971463;28;20429;-68
2022/10/21 02:29:23;;;;;;;5.70;4.60;;;;;;;;;;4971127;28;20450;-69
2022/10/21 02:31:49;;;;;;;15.50;5.17;;;;;;;;;;4970527;28;20461;-68
2022/10/21 02:34:18;;;;;;;7.77;4.90;;;;;;;;;;4969841;28;20970;-68
2022/10/21 02:37:03;;;;;;;4.87;4.30;;;;;;;;;;4971955;28;20187;-68
2022/10/21 02:39:34;;;;;;;5.50;4.43;;;;;;;;;;4970132;28;20524;-69
2022/10/21 02:42:01;;;;;;;14.97;5.70;;;;;;;;;;4970893;28;20548;-67
2022/10/21 02:44:27;;;;;;;5.30;4.80;;;;;;;;;;4970774;28;20448;-68
2022/10/21 02:46:53;;;;;;;10.37;4.87;;;;;;;;;;4970115;28;20437;-70
2022/10/21 02:49:19;;;;;;;5.63;5.13;;;;;;;;;;4969153;28;20493;-69
2022/10/21 02:51:45;;;;;;;6.00;5.57;;;;;;;;;;4970916;28;20430;-68
2022/10/21 02:54:12;;;;;;;8.80;5.40;;;;;;;;;;4970790;28;20452;-68
2022/10/21 02:56:37;;;;;;;6.90;5.47;;;;;;;;;;4969336;28;20529;-69
2022/10/21 02:59:03;;;;;;;5.97;5.47;;;;;;;;;;4970204;28;20521;-68
2022/10/21 03:01:29;;;;;;;8.37;5.97;;;;;;;;;;4970511;28;20445;-69
2022/10/21 03:03:55;;;;;;;6.47;5.67;;;;;;;;;;4970365;28;20906;-68
2022/10/21 03:06:21;;;;;;;10.77;5.80;;;;;;;;;;4969815;28;20469;-68
2022/10/21 03:08:47;;;;;;;7.40;6.90;;;;;;;;;;4970509;28;20914;-68
2022/10/21 03:11:13;;;;;;;5.40;5.10;;;;;;;;;;4970247;28;22045;-70
2022/10/21 03:13:39;;;;;;;4.50;4.40;;;;;;;;;;4971029;28;20460;-71
2022/10/21 03:16:05;;;;;;;5.30;4.90;;;;;;;;;;4970658;28;20450;-70
2022/10/21 03:18:31;;;;;;;6.53;4.73;;;;;;;;;;4969119;28;20434;-68
2022/10/21 03:20:57;;;;;;;4.70;4.40;;;;;;;;;;4969283;28;20914;-68
2022/10/21 03:23:23;;;;;;;5.63;5.07;;;;;;;;;;4970181;28;20497;-69
2022/10/21 03:25:49;;;;;;;11.13;5.47;;;;;;;;;;4970762;28;20488;-70
2022/10/21 03:28:15;;;;;;;16.80;6.20;;;;;;;;;;4969958;28;20481;-69
2022/10/21 03:30:41;;;;;;;7.03;6.10;;;;;;;;;;4970413;28;20846;-68
2022/10/21 03:33:07;;;;;;;9.03;5.80;;;;;;;;;;4969014;28;20446;-68
2022/10/21 03:35:33;;;;;;;18.77;5.87;;;;;;;;;;4970444;28;20434;-68
2022/10/21 03:37:59;;;;;;;9.90;5.73;;;;;;;;;;4969910;28;20466;-69
2022/10/21 03:40:29;;;;;;;7.30;6.30;;;;;;;;;;4969602;28;20777;-68
2022/10/21 03:42:58;;;;;;;7.73;7.10;;;;;;;;;;4969135;28;20493;-69
2022/10/21 03:45:24;;;;;;;7.60;7.00;;;;;;;;;;4965444;28;20477;-68
2022/10/21 03:47:51;;;;;;;7.80;6.97;;;;;;;;;;4965311;28;20449;-68
2022/10/21 03:50:17;;;;;;;7.17;6.50;;;;;;;;;;4964759;28;20958;-70
2022/10/21 03:52:43;;;;;;;8.50;7.43;;;;;;;;;;4966938;28;20444;-68
2022/10/21 03:55:09;;;;;;;7.80;7.10;;;;;;;;;;4967102;28;20500;-68
2022/10/21 03:57:35;;;;;;;9.00;6.60;;;;;;;;;;4966041;28;20434;-69
2022/10/21 04:00:01;;;;;;;5.87;5.40;;;;;;;;;;4967296;28;21064;-69
2022/10/21 04:02:27;;;;;;;5.80;5.50;;;;;;;;;;4967620;28;20477;-68
2022/10/21 04:04:53;;;;;;;6.07;5.70;;;;;;;;;;4970653;28;20787;-68
2022/10/21 04:07:19;;;;;;;6.20;5.60;;;;;;;;;;4969094;28;20430;-68
2022/10/21 04:09:45;;;;;;;7.27;6.67;;;;;;;;;;4968261;28;20493;-68
2022/10/21 04:12:11;;;;;;;5.90;5.63;;;;;;;;;;4965382;28;20434;-69
2022/10/21 04:14:37;;;;;;;7.53;7.03;;;;;;;;;;4967379;28;20516;-68
2022/10/21 04:17:03;;;;;;;6.70;6.10;;;;;;;;;;4969206;28;20438;-69
2022/10/21 04:19:29;;;;;;;6.00;5.70;;;;;;;;;;4968494;28;20488;-71
2022/10/21 04:21:55;;;;;;;14.23;5.63;;;;;;;;;;4970777;28;20520;-70
2022/10/21 04:24:21;;;;;;;5.60;5.00;;;;;;;;;;4970453;28;20491;-70
2022/10/21 04:26:47;;;;;;;6.20;5.80;;;;;;;;;;4970620;28;20529;-71
2022/10/21 04:29:13;;;;;;;4.30;4.10;;;;;;;;;;4970458;28;20441;-69
2022/10/21 04:31:39;;;;;;;7.60;3.70;;;;;;;;;;4970035;28;20426;-71
2022/10/21 04:34:05;;;;;;;5.30;4.33;;;;;;;;;;4969274;28;20446;-71
2022/10/21 04:36:31;;;;;;;5.20;4.90;;;;;;;;;;4969925;28;20422;-70
2022/10/21 04:38:57;;;;;;;4.87;4.70;;;;;;;;;;4968953;28;20434;-70
2022/10/21 04:41:23;;;;;;;4.50;4.30;;;;;;;;;;4969772;28;20504;-70
2022/10/21 04:43:49;;;;;;;5.60;5.20;;;;;;;;;;4970131;28;20500;-69
2022/10/21 04:46:15;;;;;;;5.77;5.47;;;;;;;;;;4970391;28;20421;-70
2022/10/21 04:48:42;;;;;;;4.90;4.47;;;;;;;;;;4968807;28;20429;-69
2022/10/21 04:51:08;;;;;;;5.93;5.67;;;;;;;;;;4968858;28;20434;-68
2022/10/21 04:53:34;;;;;;;5.10;4.90;;;;;;;;;;4969045;28;20520;-68
2022/10/21 04:56:00;;;;;;;5.73;5.33;;;;;;;;;;4969876;28;20501;-70
2022/10/21 04:58:26;;;;;;;5.83;5.30;;;;;;;;;;4968360;28;20963;-69
2022/10/21 05:00:52;;;;;;;5.33;5.10;;;;;;;;;;4970074;28;20437;-69
2022/10/21 05:03:19;;;;;;;6.23;5.40;;;;;;;;;;4970288;28;21024;-70
2022/10/21 05:05:48;;;;;;;5.50;5.03;;;;;;;;;;4970064;28;20505;-70
2022/10/21 05:08:14;;;;;;;4.60;4.40;;;;;;;;;;4969129;28;20477;-68
2022/10/21 05:10:39;;;;;;;5.63;5.20;;;;;;;;;;4969869;28;20993;-68
2022/10/21 05:13:05;;;;;;;5.43;5.00;;;;;;;;;;4970526;28;20433;-68
2022/10/21 05:15:32;;;;;;;5.20;4.87;;;;;;;;;;4972240;28;20461;-69
2022/10/21 05:17:58;;;;;;;6.50;5.90;;;;;;;;;;4969359;28;20430;-69
2022/10/21 05:20:24;;;;;;;6.63;5.30;;;;;;;;;;4971110;28;20515;-71
2022/10/21 05:22:51;;;;;;;5.27;4.87;;;;;;;;;;4971979;28;20477;-71
2022/10/21 05:25:17;;;;;;;5.40;4.93;;;;;;;;;;4972505;28;20808;-71
2022/10/21 05:27:43;;;;;;;6.50;5.90;;;;;;;;;;4971149;28;20422;-70
2022/10/21 05:30:09;;;;;;;8.80;6.40;;;;;;;;;;4971856;28;20434;-71
2022/10/21 05:32:35;;;;;;;6.47;5.97;;;;;;;;;;4970641;28;20517;-71
2022/10/21 05:35:01;;;;;;;5.70;5.23;;;;;;;;;;4972556;28;20422;-70
2022/10/21 05:37:27;;;;;;;6.00;5.50;;;;;;;;;;4972872;28;20430;-71
2022/10/21 05:39:53;;;;;;;4.73;4.53;;;;;;;;;;4972546;28;20520;-69
2022/10/21 05:42:19;;;;;;;3.73;3.60;;;;;;;;;;4971147;28;20474;-72
2022/10/21 05:44:45;;;;;;;5.90;5.37;;;;;;;;;;4971752;28;20883;-71
2022/10/21 05:47:11;;;;;;;4.90;4.60;;;;;;;;;;4971499;28;20540;-67
2022/10/21 05:49:37;;;;;;;9.30;7.17;;;;;;;;;;4972205;28;20469;-71
2022/10/21 05:52:03;;;;;;;4.80;4.60;;;;;;;;;;4961893;28;20904;-71
2022/10/21 05:54:29;;;;;;;10.20;5.43;;;;;;;;;;4968675;28;20438;-70
2022/10/21 05:56:55;;;;;;;6.70;5.37;;;;;;;;;;4970807;28;20426;-70
2022/10/21 05:59:22;;;;;;;4.37;4.17;;;;;;;;;;4971573;28;20434;-69
2022/10/21 06:01:48;;;;;;;3.90;3.63;;;;;;;;;;4968272;28;20438;-71
2022/10/21 06:04:14;;;;;;;4.63;4.40;;;;;;;;;;4969603;28;20552;-71
2022/10/21 06:06:40;;;;;;;4.50;4.20;;;;;;;;;;4971839;28;20508;-72
2022/10/21 06:09:06;;;;;;;5.50;5.17;;;;;;;;;;4971657;28;20950;-71
2022/10/21 06:11:32;;;;;;;4.30;4.10;;;;;;;;;;4971114;28;20919;-72
2022/10/21 06:13:58;;;;;;;5.60;5.20;;;;;;;;;;4969937;28;20969;-72
2022/10/21 06:16:24;;;;;;;3.57;3.37;;;;;;;;;;4972146;28;20433;-70
2022/10/21 06:18:50;;;;;;;4.60;4.20;;;;;;;;;;4971267;28;20512;-71
2022/10/21 06:21:16;;;;;;;4.53;4.33;;;;;;;;;;4972210;28;20442;-71
2022/10/21 06:23:42;;;;;;;4.80;4.40;;;;;;;;;;4969388;28;20497;-70
2022/10/21 06:26:10;;;;;;;4.70;4.27;;;;;;;;;;4970274;28;20434;-70
2022/10/21 06:28:37;;;;;;;5.13;4.70;;;;;;;;;;4971148;28;20584;-71
2022/10/21 06:31:03;;;;;;;4.63;4.37;;;;;;;;;;4970026;28;20437;-71
2022/10/21 06:33:29;;;;;;;4.67;4.37;;;;;;;;;;4969157;28;20470;-72
2022/10/21 06:35:55;;;;;;;8.40;4.20;;;;;;;;;;4969612;28;20442;-71
2022/10/21 06:38:22;;;;;;;5.70;4.47;;;;;;;;;;4971947;28;20444;-72
2022/10/21 06:40:48;;;;;;;6.10;5.50;;;;;;;;;;4971491;28;20517;-72
2022/10/21 06:43:14;;;;;;;4.63;4.23;;;;;;;;;;4970616;28;20580;-71
2022/10/21 06:45:40;;;;;;;12.53;6.00;;;;;;;;;;4970987;28;20952;-71
2022/10/21 06:48:06;;;;;;;8.70;7.50;;;;;;;;;;4971234;28;20544;-70
2022/10/21 06:50:32;;;;;;;5.80;5.17;;;;;;;;;;4969793;28;20442;-71
2022/10/21 06:52:58;;;;;;;9.90;5.13;;;;;;;;;;4971243;28;20817;-71
2022/10/21 06:55:24;;;;;;;5.77;5.20;;;;;;;;;;4971854;28;20437;-70
2022/10/21 06:57:50;;;;;;;6.20;5.67;;;;;;;;;;4970023;28;20430;-70
2022/10/21 07:00:16;;;;;;;5.70;4.70;;;;;;;;;;4970880;28;20438;-69
2022/10/21 07:02:42;;;;;;;5.13;4.33;;;;;;;;;;4970547;28;20831;-69
2022/10/21 07:05:09;;;;;;;5.40;4.03;;;;;;;;;;4968710;28;20438;-69
2022/10/21 07:07:35;;;;;;;6.63;4.50;;;;;;;;;;4970853;28;20500;-72
2022/10/21 07:10:01;;;;;;;6.90;4.23;;;;;;;;;;4971082;28;20998;-71
2022/10/21 07:12:29;;;;;;;3.73;3.40;;;;;;;;;;4970742;28;20937;-71
2022/10/21 07:14:55;;;;;;;3.57;3.30;;;;;;;;;;4971674;28;20426;-71
2022/10/21 07:17:21;;;;;;;3.50;3.20;;;;;;;;;;4970569;28;20458;-72
2022/10/21 07:19:47;;;;;;;3.60;3.30;;;;;;;;;;4969340;28;20501;-70
2022/10/21 07:22:13;;;;;;;6.33;3.60;;;;;;;;;;4969853;28;20548;-68
2022/10/21 07:24:40;;;;;;;4.13;3.70;;;;;;;;;;4971159;28;20430;-70
2022/10/21 07:27:06;;;;;;;10.90;3.43;;;;;;;;;;4971093;28;20445;-69
2022/10/21 07:29:32;;;;;;;7.70;3.00;;;;;;;;;;4969788;28;20449;-71
2022/10/21 07:31:58;;;;;;;4.50;4.10;;;;;;;;;;4971191;28;20512;-71
2022/10/21 07:34:25;;;;;;;7.10;2.83;;;;;;;;;;4970946;28;20430;-70
2022/10/21 07:36:51;;;;;;;3.50;2.87;;;;;;;;;;4969630;28;20465;-72
2022/10/21 07:39:18;;;;;;;5.37;3.03;;;;;;;;;;4969000;28;20442;-72
2022/10/21 07:41:46;;;;;;;3.70;2.80;;;;;;;;;;4970201;28;20462;-70
2022/10/21 07:44:12;;;;;;;2.90;2.80;;;;;;;;;;4969017;28;20477;-70
2022/10/21 07:46:39;;;;;;;5.50;3.63;;;;;;;;;;4971300;28;20910;-71
2022/10/21 07:49:05;;;;;;;6.20;2.73;;;;;;;;;;4969890;28;20450;-71
2022/10/21 07:51:31;;;;;;;4.83;2.63;;;;;;;;;;4969885;28;20472;-71
2022/10/21 07:53:58;;;;;;;1.83;1.73;;;;;;;;;;4969363;28;20445;-71
2022/10/21 07:56:26;;;;;;;3.00;2.10;;;;;;;;;;4971263;28;20429;-71
2022/10/21 07:58:52;;;;;;;2.10;1.90;;;;;;;;;;4968374;28;20439;-66
2022/10/21 08:01:19;;;;;;;3.73;1.60;;;;;;;;;;4965002;28;20445;-71
2022/10/21 08:03:45;;;;;;;8.10;1.73;;;;;;;;;;4969935;28;20477;-70
2022/10/21 08:06:12;;;;;;;14.43;2.10;;;;;;;;;;4970672;28;20458;-72
2022/10/21 08:08:39;;;;;;;15.50;2.13;;;;;;;;;;4970327;28;20828;-69
2022/10/21 08:11:05;;;;;;;6.80;1.77;;;;;;;;;;4969284;28;20472;-69
2022/10/21 08:13:31;;;;;;;2.30;1.30;;;;;;;;;;4970364;28;20458;-72
2022/10/21 08:15:58;;;;;;;2.73;1.40;;;;;;;;;;4970490;28;20426;-71
2022/10/21 08:18:27;;;;;;;2.30;2.20;;;;;;;;;;4969989;28;20505;-71
2022/10/21 08:20:53;;;;;;;4.20;1.80;;;;;;;;;;4968381;28;20432;-71
2022/10/21 08:23:20;;;;;;;1.83;1.73;;;;;;;;;;4969202;28;20486;-68
2022/10/21 08:25:47;;;;;;;2.90;2.50;;;;;;;;;;4970002;28;20438;-71
2022/10/21 08:28:14;;;;;;;7.13;3.03;;;;;;;;;;4970616;28;20428;-68
2022/10/21 08:30:40;;;;;;;11.57;2.00;;;;;;;;;;4968625;28;20469;-72
2022/10/21 08:33:06;;;;;;;4.33;2.10;;;;;;;;;;4968288;28;20875;-71
2022/10/21 08:35:32;;;;;;;2.80;2.70;;;;;;;;;;4969028;28;20440;-71
2022/10/21 08:37:58;;;;;;;4.30;1.97;;;;;;;;;;4969668;28;20469;-69
2022/10/21 08:40:24;;;;;;;2.70;2.50;;;;;;;;;;4970308;28;20438;-70
2022/10/21 08:42:50;;;;;;;3.57;2.27;;;;;;;;;;4969070;28;20489;-69
2022/10/21 08:45:19;;;;;;;2.13;2.00;;;;;;;;;;4967742;28;20469;-69
2022/10/21 08:47:48;;;;;;;3.07;1.90;;;;;;;;;;4968447;28;20438;-69
2022/10/21 08:50:24;;;;;;;1.47;1.23;;;;;;;;;;4971764;28;20477;-68
2022/10/21 08:52:51;;;;;;;4.60;1.57;;;;;;;;;;4970028;28;20446;-69
2022/10/21 08:55:23;;;;;;;3.37;1.90;;;;;;;;;;4972132;28;20433;-70
2022/10/21 08:57:49;;;;;;;2.90;1.40;;;;;;;;;;4973202;28;20430;-71
2022/10/21 09:00:28;;;;;;;1.40;1.30;;;;;;;;;;4960152;28;20504;-72
2022/10/21 09:02:54;;;;;;;2.00;1.13;;;;;;;;;;4972780;28;20565;-69
2022/10/21 09:05:35;;;;;;;2.87;2.67;;;;;;;;;;4973132;28;20455;-70
2022/10/21 09:08:20;;;;;;;0.90;0.87;;;;;;;;;;4973615;28;20434;-68
2022/10/21 09:11:04;;;;;;;3.53;1.00;;;;;;;;;;4972239;28;20551;-68
2022/10/21 09:13:58;;;;;;;2.63;0.67;;;;;;;;;;4973649;28;20426;-68
2022/10/21 09:16:42;;;;;;;0.97;0.97;;;;;;;;;;4973028;28;20433;-68
2022/10/21 09:19:29;;;;;;;1.77;1.10;;;;;;;;;;4971221;28;20771;-69
2022/10/21 09:22:01;;;;;;;1.80;0.90;;;;;;;;;;4971100;28;20438;-71
2022/10/21 09:24:34;;;;;;;0.63;0.60;;;;;;;;;;4973142;28;20496;-70
2022/10/21 09:27:00;;;;;;;1.50;1.40;;;;;;;;;;4971710;28;20426;-69
2022/10/21 09:29:43;;;;;;;1.00;1.00;;;;;;;;;;4969724;28;20438;-69
2022/10/21 09:32:14;;;;;;;0.53;0.53;;;;;;;;;;4972647;28;20453;-69
2022/10/21 09:34:44;;;;;;;2.73;1.80;;;;;;;;;;4972259;28;20440;-68
2022/10/21 09:37:22;;;;;;;1.03;0.90;;;;;;;;;;4987900;28;20436;-70
2022/10/21 09:39:53;;;;;;;3.03;0.80;;;;;;;;;;4972654;28;20468;-68
2022/10/21 09:42:19;;;;;;;6.40;4.10;;;;;;;;;;4972693;28;20977;-70
2022/10/21 09:44:45;;;;;;;2.90;2.80;;;;;;;;;;4972619;28;20537;-69
2022/10/21 09:47:18;;;;;;;3.07;2.30;;;;;;;;;;4967769;28;20433;-70
2022/10/21 09:49:46;;;;;;;4.57;1.60;;;;;;;;;;4972998;28;20517;-68
2022/10/21 09:52:12;;;;;;;1.10;1.07;;;;;;;;;;4970885;28;20435;-70
2022/10/21 09:54:40;;;;;;;3.87;1.20;;;;;;;;;;4972865;28;20429;-69
2022/10/21 09:57:14;;;;;;;1.70;0.70;;;;;;;;;;4971148;28;20453;-70
2022/10/21 09:59:50;;;;;;;6.83;0.80;;;;;;;;;;4971649;28;20807;-72
2022/10/21 10:02:22;;;;;;;4.87;2.10;;;;;;;;;;4969915;28;20833;-71
2022/10/21 10:04:48;;;;;;;14.10;10.47;;;;;;;;;;4972452;28;20430;-69
2022/10/21 10:07:32;;;;;;;13.20;2.77;;;;;;;;;;4971780;28;20430;-70
2022/10/21 10:09:58;;;;;;;3.60;2.17;;;;;;;;;;4970801;28;20474;-68
2022/10/21 10:12:25;;;;;;;1.87;1.30;;;;;;;;;;4971538;28;20775;-69
2022/10/21 10:14:51;;;;;;;4.43;1.00;;;;;;;;;;4971911;28;20452;-70
2022/10/21 10:17:24;;;;;;;6.30;1.17;;;;;;;;;;4969891;28;20509;-69
2022/10/21 10:20:05;;;;;;;1.47;1.00;;;;;;;;;;4970834;28;20440;-68
2022/10/21 10:22:36;;;;;;;2.27;0.77;;;;;;;;;;4971095;28;20611;-69
2022/10/21 10:25:08;;;;;;;3.17;0.90;;;;;;;;;;4971425;28;20438;-69
2022/10/21 10:27:34;;;;;;;2.30;1.03;;;;;;;;;;4970157;28;20926;-68
2022/10/21 10:30:01;;;;;;;3.50;0.70;;;;;;;;;;4986499;28;20437;-71
2022/10/21 10:32:31;;;;;;;0.97;0.97;;;;;;;;;;4971802;28;20442;-68
2022/10/21 10:35:01;;;;;;;1.00;1.00;;;;;;;;;;4970800;28;20441;-68
2022/10/21 10:37:28;;;;;;;2.20;0.90;;;;;;;;;;4970538;28;20809;-67
2022/10/21 10:39:56;;;;;;;1.27;1.00;;;;;;;;;;4970622;28;20541;-68
2022/10/21 10:42:32;;;;;;;8.60;1.23;;;;;;;;;;4971495;28;20528;-67
2022/10/21 10:44:59;;;;;;;6.27;1.70;;;;;;;;;;4971369;28;20508;-71
2022/10/21 10:47:28;;;;;;;0.80;0.77;;;;;;;;;;4970310;28;20442;-69
2022/10/21 10:49:54;;;;;;;1.90;1.00;;;;;;;;;;4969133;28;20512;-69
2022/10/21 10:52:23;;;;;;;2.20;1.10;;;;;;;;;;4970521;28;20445;-69
2022/10/21 10:55:08;;;;;;;2.47;1.40;;;;;;;;;;4971111;28;20433;-69
2022/10/21 10:57:35;;;;;;;0.83;0.83;;;;;;;;;;4970553;28;20433;-68
2022/10/21 11:00:04;;;;;;;3.80;1.30;;;;;;;;;;4969355;28;20879;-70
2022/10/21 11:02:34;;;;;;;4.73;1.43;;;;;;;;;;4971001;28;20501;-72
2022/10/21 11:05:05;;;;;;;2.30;1.20;;;;;;;;;;4970333;28;20448;-70
2022/10/21 11:07:33;;;;;;;4.83;1.40;;;;;;;;;;4971270;28;20425;-69
2022/10/21 11:10:16;;;;;;;1.40;1.00;;;;;;;;;;4969579;28;20465;-69
2022/10/21 11:12:42;;;;;;;13.13;1.53;;;;;;;;;;4970619;28;20941;-72
2022/10/21 11:15:13;;;;;;;6.10;1.37;;;;;;;;;;4967466;28;20434;-70
2022/10/21 11:17:40;;;;;;;4.20;1.27;;;;;;;;;;4966925;28;20529;-68
2022/10/21 11:20:21;;;;;;;2.83;0.90;;;;;;;;;;4969765;28;20476;-72
2022/10/21 11:22:59;;;;;;;3.83;2.30;;;;;;;;;;4971132;28;20981;-72
2022/10/21 11:25:35;;;;;;;1.90;1.40;;;;;;;;;;4970797;28;20926;-71
2022/10/21 11:28:03;;;;;;;2.00;1.30;;;;;;;;;;4970719;28;20441;-68
2022/10/21 11:30:34;;;;;;;2.63;1.30;;;;;;;;;;4968826;28;20774;-70
2022/10/21 11:33:09;;;;;;;2.33;0.77;;;;;;;;;;4970093;28;20438;-68
2022/10/21 11:35:48;;;;;;;1.20;1.10;;;;;;;;;;4970117;28;20441;-68
2022/10/21 11:38:24;;;;;;;2.40;0.90;;;;;;;;;;4969833;28;20898;-69
2022/10/21 11:40:54;;;;;;;1.60;1.10;;;;;;;;;;4970737;28;20472;-67
2022/10/21 11:43:43;;;;;;;3.83;1.60;;;;;;;;;;4970259;28;21084;-68
2022/10/21 11:46:24;;;;;;;1.17;1.17;;;;;;;;;;4962769;28;20438;-68
2022/10/21 11:48:53;;;;;;;1.47;1.37;;;;;;;;;;4969032;28;20489;-68
2022/10/21 11:51:28;;;;;;;2.30;1.23;;;;;;;;;;4970791;28;20426;-68
2022/10/21 11:53:54;;;;;;;3.20;0.80;;;;;;;;;;4969495;28;20784;-67
2022/10/21 11:56:39;;;;;;;2.83;0.70;;;;;;;;;;4958571;28;20442;-69
2022/10/21 11:59:23;;;;;;;4.20;0.83;;;;;;;;;;4968604;28;20289;-67
2022/10/21 12:01:52;;;;;;;4.60;0.97;;;;;;;;;;4968358;28;20441;-69
2022/10/21 12:04:34;;;;;;;1.13;0.70;;;;;;;;;;4968651;28;20485;-69
2022/10/21 12:07:00;;;;;;;1.37;1.30;;;;;;;;;;4967912;28;20568;-68
2022/10/21 12:09:35;;;;;;;0.97;0.70;;;;;;;;;;4968554;28;20532;-71
2022/10/21 12:12:15;;;;;;;5.60;1.17;;;;;;;;;;4970590;28;20492;-72
2022/10/21 12:14:48;;;;;;;1.00;1.00;;;;;;;;;;4969677;28;20453;-71
2022/10/21 12:17:17;;;;;;;6.20;1.10;;;;;;;;;;4968440;28;20844;-69
2022/10/21 12:19:53;;;;;;;1.40;0.83;;;;;;;;;;4968964;28;20484;-68
2022/10/21 12:22:19;;;;;;;1.07;1.07;;;;;;;;;;4967307;28;21055;-68
2022/10/21 12:24:57;;;;;;;5.07;0.97;;;;;;;;;;4969359;28;20945;-70
2022/10/21 12:27:34;;;;;;;13.53;1.17;;;;;;;;;;4973959;28;20480;-69
2022/10/21 12:30:04;;;;;;;2.93;1.30;;;;;;;;;;4973657;28;20961;-69
2022/10/21 12:32:37;;;;;;;3.17;0.90;;;;;;;;;;4972921;28;20887;-72
2022/10/21 12:35:03;;;;;;;3.13;0.70;;;;;;;;;;4968478;28;20430;-72
2022/10/21 12:37:41;;;;;;;4.73;1.97;;;;;;;;;;4973651;28;20480;-71
2022/10/21 12:40:12;;;;;;;0.70;0.70;;;;;;;;;;4973854;28;20462;-72
2022/10/21 12:42:42;;;;;;;1.70;0.80;;;;;;;;;;4973773;28;20489;-72
2022/10/21 12:45:24;;;;;;;2.13;0.70;;;;;;;;;;4972272;28;20797;-72
2022/10/21 12:47:52;;;;;;;2.80;2.60;;;;;;;;;;4972001;28;20434;-71
2022/10/21 12:50:21;;;;;;;2.90;2.07;;;;;;;;;;4972413;28;20441;-71
2022/10/21 12:53:02;;;;;;;4.20;2.10;;;;;;;;;;4972706;28;20520;-70
2022/10/21 12:55:29;;;;;;;1.07;0.70;;;;;;;;;;4970290;28;20461;-72
2022/10/21 12:57:59;;;;;;;4.80;2.23;;;;;;;;;;4968504;28;20986;-71
2022/10/21 13:00:31;;;;;;;25.93;12.60;;;;;;;;;;4972156;28;20453;-68
2022/10/21 13:03:02;;;;;;;8.63;0.57;;;;;;;;;;4971030;28;20494;-70
2022/10/21 13:05:37;;;;;;;1.17;1.10;;;;;;;;;;4972723;28;20438;-69
2022/10/21 13:08:21;;;;;;;2.73;0.80;;;;;;;;;;4972410;28;20850;-71
2022/10/21 13:11:04;;;;;;;2.40;0.90;;;;;;;;;;4972401;28;20609;-71
2022/10/21 13:13:30;;;;;;;2.20;0.80;;;;;;;;;;4972155;28;20430;-68
2022/10/21 13:15:57;;;;;;;1.70;0.70;;;;;;;;;;4970662;28;20425;-70
2022/10/21 13:18:41;;;;;;;2.17;1.30;;;;;;;;;;4971078;28;20434;-73
2022/10/21 13:21:21;;;;;;;2.03;0.90;;;;;;;;;;4973446;28;20430;-68
2022/10/21 13:23:51;;;;;;;1.00;1.00;;;;;;;;;;4970406;28;20488;-72
2022/10/21 13:26:19;;;;;;;2.77;1.00;;;;;;;;;;4972410;28;20426;-72
2022/10/21 13:29:04;;;;;;;1.03;0.83;;;;;;;;;;4971541;28;20434;-69
2022/10/21 13:31:31;;;;;;;1.00;0.80;;;;;;;;;;4971798;28;20648;-72
2022/10/21 13:33:57;;;;;;;0.90;0.90;;;;;;;;;;4971933;28;20513;-68
2022/10/21 13:36:33;;;;;;;2.30;1.33;;;;;;;;;;4970551;28;20533;-70
2022/10/21 13:39:00;;;;;;;2.47;2.37;;;;;;;;;;4971513;28;20456;-68
2022/10/21 13:41:27;;;;;;;1.13;1.00;;;;;;;;;;4987384;28;20434;-69
2022/10/21 13:43:53;;;;;;;3.03;0.80;;;;;;;;;;4970311;28;20481;-70
2022/10/21 13:46:22;;;;;;;3.03;0.90;;;;;;;;;;4970577;28;20441;-71
2022/10/21 13:48:49;;;;;;;2.03;0.70;;;;;;;;;;4971011;28;20434;-69
2022/10/21 13:51:18;;;;;;;0.90;0.90;;;;;;;;;;4971796;28;20792;-72
2022/10/21 13:53:44;;;;;;;3.20;2.70;;;;;;;;;;4971761;28;20426;-72
2022/10/21 13:56:18;;;;;;;5.10;4.70;;;;;;;;;;4971192;28;20461;-69
2022/10/21 13:58:44;;;;;;;2.87;2.53;;;;;;;;;;4972845;28;20456;-72
2022/10/21 14:01:17;;;;;;;2.30;2.27;;;;;;;;;;4972872;28;20889;-69
2022/10/21 14:03:44;;;;;;;3.33;1.50;;;;;;;;;;4972601;28;20481;-70
2022/10/21 14:06:11;;;;;;;5.83;2.23;;;;;;;;;;4970966;28;20430;-70
2022/10/21 14:08:41;;;;;;;3.17;1.23;;;;;;;;;;4971307;28;20453;-73
2022/10/21 14:11:11;;;;;;;1.13;1.13;;;;;;;;;;4972054;28;20497;-72
2022/10/21 14:13:38;;;;;;;1.10;0.90;;;;;;;;;;4972445;28;20442;-71
2022/10/21 14:16:06;;;;;;;1.40;1.30;;;;;;;;;;4970221;28;20497;-72
2022/10/21 14:18:44;;;;;;;1.10;1.10;;;;;;;;;;4970077;28;20480;-70
2022/10/21 14:21:15;;;;;;;3.57;0.87;;;;;;;;;;4972517;28;20438;-71
2022/10/21 14:23:41;;;;;;;1.13;1.13;;;;;;;;;;4972562;28;20492;-71
2022/10/21 14:26:08;;;;;;;3.53;1.80;;;;;;;;;;4971919;28;20433;-71
2022/10/21 14:28:34;;;;;;;1.33;1.27;;;;;;;;;;4971033;28;20446;-69
2022/10/21 14:31:01;;;;;;;1.80;0.90;;;;;;;;;;4972149;28;20434;-72
2022/10/21 14:33:28;;;;;;;1.10;1.10;;;;;;;;;;4970935;28;20444;-70
2022/10/21 14:36:03;;;;;;;2.20;2.07;;;;;;;;;;4971718;28;20414;-72
2022/10/21 14:38:35;;;;;;;2.30;2.13;;;;;;;;;;4970053;28;20497;-71
2022/10/21 14:41:05;;;;;;;1.67;0.97;;;;;;;;;;4971601;28;20950;-71
2022/10/21 14:43:38;;;;;;;3.30;1.30;;;;;;;;;;4971094;28;21651;-71
2022/10/21 14:46:06;;;;;;;2.93;2.30;;;;;;;;;;4969779;28;20422;-72
2022/10/21 14:48:34;;;;;;;6.53;3.37;;;;;;;;;;4969963;28;20528;-71
2022/10/21 14:51:01;;;;;;;2.87;2.63;;;;;;;;;;4971015;28;20426;-68
2022/10/21 14:53:31;;;;;;;4.00;2.50;;;;;;;;;;4972095;28;20433;-70
2022/10/21 14:55:58;;;;;;;1.50;1.40;;;;;;;;;;4971740;28;20414;-71